Home > Products > Valid Products > TAF

000
FTUS43 KLSX 071729
TAFCOU
TAF
KCOU 071729Z 0718/0818 27012G18KT P6SM BKN120
     FM071900 29017G27KT P6SM SCT050 BKN120
     FM080300 29013KT P6SM BKN040
     FM080800 30016G26KT P6SM -SHSN BKN025 OVC040=



000
FTUS43 KLSX 071729
TAFUIN
TAF
KUIN 071729Z 0718/0818 27016G22KT P6SM BKN120
     FM072000 29018G28KT P6SM SCT050 BKN120
     FM080300 30015KT P6SM OVC040
     FM080600 30016G26KT P6SM -SHSN BKN025 OVC040=



000
FTUS43 KLSX 071729
TAFSTL
TAF
KSTL 071729Z 0718/0824 26014G24KT P6SM BKN200
     FM072300 28014KT P6SM BKN120
     FM080900 29015KT P6SM BKN025 OVC050
     FM081200 29016G26KT P6SM -SHSN BKN025 OVC040=



000
FTUS43 KLSX 071729
TAFSUS
TAF
KSUS 071729Z 0718/0818 26014G24KT P6SM BKN200
     FM072300 28014KT P6SM BKN120
     FM080900 29015KT P6SM BKN025 OVC050
     FM081200 29016G26KT P6SM -SHSN BKN025 OVC040=



000
FTUS43 KLSX 071504 AAA
TAFSUS
TAF AMD
KSUS 071504Z 0715/0812 22012G18KT P6SM BKN200
     FM071900 27014KT P6SM BKN120
     FM080600 29015KT P6SM SCT050 OVC100
     FM081100 29015G25KT P6SM -SN SCT025 OVC040=



000
FTUS43 KLSX 071504 AAA
TAFSTL
TAF AMD
KSTL 071504Z 0715/0818 22012G18KT P6SM BKN200
     FM071900 27014KT P6SM BKN120
     FM080600 29015KT P6SM SCT050 OVC100
     FM081100 29015G25KT P6SM -SN SCT025 OVC040=



000
FTUS43 KLSX 071504 AAA
TAFCOU
TAF AMD
KCOU 071504Z 0715/0812 27012G18KT P6SM BKN120
     FM071900 29017G27KT P6SM SCT050 BKN120
     FM080300 29013KT P6SM BKN040=



000
FTUS43 KLSX 071132
TAFUIN
TAF
KUIN 071132Z 0712/0812 23013KT P6SM BKN200
     FM071700 27016KT P6SM BKN120
     FM072000 29018G28KT P6SM SCT050 BKN120
     FM080300 30015KT P6SM -SN SCT025 OVC040=



000
FTUS43 KLSX 071132
TAFSUS
TAF
KSUS 071132Z 0712/0812 22010KT P6SM BKN200
     FM071900 27014KT P6SM BKN120
     FM080600 29015KT P6SM SCT050 OVC100
     FM081100 29015G25KT P6SM -SN SCT025 OVC040=



000
FTUS43 KLSX 071132
TAFCOU
TAF
KCOU 071132Z 0712/0812 22010KT P6SM BKN200
     FM071600 27012KT P6SM BKN120
     FM071900 29017G27KT P6SM SCT050 BKN120
     FM080300 29013KT P6SM BKN040=



000
FTUS43 KLSX 071132
TAFSTL
TAF
KSTL 071132Z 0712/0818 22010KT P6SM BKN200
     FM071900 27014KT P6SM BKN120
     FM080600 29015KT P6SM SCT050 OVC100
     FM081100 29015G25KT P6SM -SN SCT025 OVC040=



000
FTUS43 KLSX 070520
TAFCOU
TAF
KCOU 070520Z 0706/0806 21009KT P6SM BKN250
     FM071600 27012KT P6SM BKN100
     FM071900 29017G27KT P6SM SCT050 OVC100
     FM080200 29013KT P6SM BKN050=



000
FTUS43 KLSX 070520
TAFSUS
TAF
KSUS 070520Z 0706/0806 00000KT P6SM BKN250
     FM070700 22010KT P6SM BKN250
     FM071800 27014KT P6SM BKN100
     FM072000 29018G28KT P6SM SCT050 OVC100
     FM080200 29013KT P6SM SCT050 OVC100=



000
FTUS43 KLSX 070520
TAFUIN
TAF
KUIN 070520Z 0706/0806 21011KT P6SM SCT120 BKN250
     FM071600 28016KT P6SM BKN120
     FM071900 29018G28KT P6SM SCT050 OVC120
     FM080200 29015KT 4SM -SN SCT025 OVC050=



000
FTUS43 KLSX 070520
TAFSTL
TAF
KSTL 070520Z 0706/0812 22010KT P6SM BKN250
     FM071800 27014KT P6SM BKN100
     FM072000 29018G28KT P6SM SCT050 OVC100
     FM080200 29013KT P6SM SCT050 OVC100
     FM080900 29013G23KT P6SM -SN SCT025 OVC050=



000
FTUS43 KLSX 070257 AAA
TAFSTL
TAF AMD
KSTL 070257Z 0703/0806 23005KT P6SM FEW250
     FM070700 22007KT P6SM BKN250
     FM071800 27014KT P6SM BKN100
     FM072100 29018G28KT P6SM SCT050 OVC100=



000
FTUS43 KLSX 062320
TAFSTL
TAF
KSTL 062320Z 0700/0806 25009KT P6SM FEW250
     FM070700 22007KT P6SM BKN250
     FM071800 27014KT P6SM BKN100
     FM072100 29018G28KT P6SM SCT050 OVC100=



000
FTUS43 KLSX 062320
TAFUIN
TAF
KUIN 062320Z 0700/0724 25007KT P6SM SKC
     FM070600 22011KT P6SM BKN250
     FM071600 28016KT P6SM BKN120
     FM072000 29018G28KT P6SM SCT050 OVC120=



000
FTUS43 KLSX 062320
TAFSUS
TAF
KSUS 062320Z 0700/0724 25008KT P6SM FEW250
     FM070700 22006KT P6SM BKN250
     FM071800 27014KT P6SM BKN100
     FM072100 29018G28KT P6SM SCT050 OVC100=



000
FTUS43 KLSX 062320
TAFUIN
TAF
KUIN 062320Z 0700/0724 25007KT P6SM SKC
     FM070600 22011KT P6SM BKN250
     FM071600 28016KT P6SM BKN120
     FM072000 29018G28KT P6SM SCT050 OVC120=



000
FTUS43 KLSX 062320
TAFCOU
TAF
KCOU 062320Z 0700/0724 25007KT P6SM SKC
     FM070600 21009KT P6SM BKN250
     FM071600 27012KT P6SM BKN100
     FM072000 29017G27KT P6SM SCT050 OVC100=



000
FTUS43 KLSX 062320
TAFSUS
TAF
KSUS 062320Z 0700/0724 25008KT P6SM FEW250
     FM070700 22006KT P6SM BKN250
     FM071800 27014KT P6SM BKN100
     FM072100 29018G28KT P6SM SCT050 OVC100=



000
FTUS43 KLSX 062320
TAFSTL
TAF
KSTL 062320Z 0700/0806 25009KT P6SM FEW250
     FM070700 22007KT P6SM BKN250
     FM071800 27014KT P6SM BKN100
     FM072100 29018G28KT P6SM SCT050 OVC100=



000
FTUS43 KLSX 062320
TAFCOU
TAF
KCOU 062320Z 0700/0724 25007KT P6SM SKC
     FM070600 21009KT P6SM BKN250
     FM071600 27012KT P6SM BKN100
     FM072000 29017G27KT P6SM SCT050 OVC100=



000
FTUS43 KLSX 062151 AAA
TAFSUS
TAF AMD
KSUS 062151Z 0622/0718 25012G18KT P6SM FEW050 FEW250
     FM062300 25008KT P6SM FEW250
     FM070300 21006KT P6SM BKN120
     FM071700 27011KT P6SM BKN100=



000
FTUS43 KLSX 062151 AAA
TAFSUS
TAF AMD
KSUS 062151Z 0622/0718 25012G18KT P6SM FEW050 FEW250
     FM062300 25008KT P6SM FEW250
     FM070300 21006KT P6SM BKN120
     FM071700 27011KT P6SM BKN100=



000
FTUS43 KLSX 062150 AAA
TAFSTL
TAF AMD
KSTL 062150Z 0622/0724 25012G20KT P6SM FEW050 FEW250
     FM062300 25009KT P6SM FEW250
     FM070300 21007KT P6SM BKN120
     FM071700 27011KT P6SM BKN100=



000
FTUS43 KLSX 062149 AAA
TAFCOU
TAF AMD
KCOU 062149Z 0622/0718 24012G20KT P6SM SKC
     FM062300 24006KT P6SM SKC
     FM070600 21008KT P6SM BKN250
     FM071600 26010KT P6SM BKN100=



000
FTUS43 KLSX 061730
TAFCOU
TAF
KCOU 061730Z 0618/0718 24008KT P6SM SKC
     FM070600 21008KT P6SM BKN250
     FM071600 26010KT P6SM BKN100=



000
FTUS43 KLSX 061730
TAFUIN
TAF
KUIN 061730Z 0618/0718 23007KT P6SM SKC
     FM070600 22011KT P6SM BKN250
     FM071600 27010KT P6SM BKN100=



000
FTUS43 KLSX 061730
TAFSUS
TAF
KSUS 061730Z 0618/0718 25006KT P6SM FEW250
     FM070300 21006KT P6SM BKN120
     FM071700 27011KT P6SM BKN100=



000
FTUS43 KLSX 061730
TAFSTL
TAF
KSTL 061730Z 0618/0724 25010KT P6SM FEW250
     FM070300 21007KT P6SM BKN120
     FM071700 27011KT P6SM BKN100=



000
FTUS43 KLSX 061509 AAA
TAFSTL
TAF AMD
KSTL 061509Z 0615/0718 13003KT P6SM SCT080
     FM061600 23007KT P6SM SCT080
     FM071700 26013KT P6SM BKN120=



000
FTUS43 KLSX 061509 AAA
TAFSTL
TAF AMD
KSTL 061509Z 0615/0718 13003KT P6SM SCT080
     FM061600 23007KT P6SM SCT080
     FM071700 26013KT P6SM BKN120=



000
FTUS43 KLSX 061128
TAFSUS
TAF
KSUS 061128Z 0612/0712 VRB03KT P6SM SCT080
     FM061500 23006KT P6SM SCT080=



000
FTUS43 KLSX 061128
TAFCOU
TAF
KCOU 061128Z 0612/0712 17005KT P6SM SCT100
     FM061400 24008KT P6SM SKC
     FM070600 21008KT P6SM BKN250=



000
FTUS43 KLSX 061128
TAFUIN
TAF
KUIN 061128Z 0612/0712 15004KT P6SM SKC
     FM061500 23007KT P6SM SKC
     FM070600 22011KT P6SM BKN250=



000
FTUS43 KLSX 061128
TAFSTL
TAF
KSTL 061128Z 0612/0718 13003KT P6SM SCT080
     FM061500 23007KT P6SM SCT080
     FM071700 26013KT P6SM BKN120=



000
FTUS43 KLSX 061128
TAFSUS
TAF
KSUS 061128Z 0612/0712 VRB03KT P6SM SCT080
     FM061500 23006KT P6SM SCT080=



000
FTUS43 KLSX 061128
TAFCOU
TAF
KCOU 061128Z 0612/0712 17005KT P6SM SCT100
     FM061400 24008KT P6SM SKC
     FM070600 21008KT P6SM BKN250=



000
FTUS43 KLSX 061128
TAFUIN
TAF
KUIN 061128Z 0612/0712 15004KT P6SM SKC
     FM061500 23007KT P6SM SKC
     FM070600 22011KT P6SM BKN250=



000
FTUS43 KLSX 061128
TAFSTL
TAF
KSTL 061128Z 0612/0718 13003KT P6SM SCT080
     FM061500 23007KT P6SM SCT080
     FM071700 26013KT P6SM BKN120=



000
FTUS43 KLSX 060853 AAA
TAFSTL
TAF AMD
KSTL 060853Z 0609/0712 14003KT P6SM BKN100
     FM061300 22007KT P6SM BKN200=



000
FTUS43 KLSX 060853 AAA
TAFSTL
TAF AMD
KSTL 060853Z 0609/0712 14003KT P6SM BKN100
     FM061300 22007KT P6SM BKN200=



000
FTUS43 KLSX 060520
TAFSTL
TAF
KSTL 060520Z 0606/0712 14003KT P6SM BKN080
     FM061300 22007KT P6SM BKN200=



000
FTUS43 KLSX 060520
TAFUIN
TAF
KUIN 060520Z 0606/0706 15005KT P6SM OVC050
     FM061300 21007KT P6SM BKN250=



000
FTUS43 KLSX 060520
TAFCOU
TAF
KCOU 060520Z 0606/0706 14005KT P6SM BKN070
     FM061200 20004KT P6SM BKN200
     FM062000 25008KT P6SM SCT250=



000
FTUS43 KLSX 060520
TAFSUS
TAF
KSUS 060520Z 0606/0706 VRB03KT P6SM BKN080
     FM061500 25006KT P6SM SCT250=



000
FTUS43 KLSX 060303 AAA
TAFSTL
TAF AMD
KSTL 060303Z 0603/0706 12004KT P6SM BKN200
     FM061300 22005KT P6SM BKN150
     FM061700 25009KT P6SM SCT250=



000
FTUS43 KLSX 060303 AAA
TAFSTL
TAF AMD
KSTL 060303Z 0603/0706 12004KT P6SM BKN200
     FM061300 22005KT P6SM BKN150
     FM061700 25009KT P6SM SCT250=



000
FTUS43 KLSX 052322
TAFSUS
TAF
KSUS 052322Z 0600/0624 00000KT P6SM FEW250
     FM061700 25007KT P6SM SCT250=



000
FTUS43 KLSX 052322
TAFSTL
TAF
KSTL 052322Z 0600/0706 00000KT P6SM FEW250
     FM061300 22005KT P6SM BKN150
     FM061700 25009KT P6SM SCT250=



000
FTUS43 KLSX 052322
TAFCOU
TAF
KCOU 052322Z 0600/0624 15003KT P6SM SCT100
     FM060900 19005KT P6SM BKN250
     FM061500 25006KT P6SM SCT200=



000
FTUS43 KLSX 052322
TAFUIN
TAF
KUIN 052322Z 0600/0624 VRB03KT P6SM BKN100
     FM061500 23006KT P6SM SCT200=



000
FTUS43 KLSX 052322
TAFSTL
TAF
KSTL 052322Z 0600/0706 00000KT P6SM FEW250
     FM061300 22005KT P6SM BKN150
     FM061700 25009KT P6SM SCT250=



000
FTUS43 KLSX 052322
TAFCOU
TAF
KCOU 052322Z 0600/0624 15003KT P6SM SCT100
     FM060900 19005KT P6SM BKN250
     FM061500 25006KT P6SM SCT200=



000
FTUS43 KLSX 052322
TAFSUS
TAF
KSUS 052322Z 0600/0624 00000KT P6SM FEW250
     FM061700 25007KT P6SM SCT250=



000
FTUS43 KLSX 052322
TAFUIN
TAF
KUIN 052322Z 0600/0624 VRB03KT P6SM BKN100
     FM061500 23006KT P6SM SCT200=



000
FTUS43 KLSX 051720
TAFCOU
TAF
KCOU 051720Z 0518/0618 VRB04KT P6SM BKN250
     FM060000 14005KT P6SM BKN100
     FM061500 23006KT P6SM BKN080=



000
FTUS43 KLSX 051720
TAFUIN
TAF
KUIN 051720Z 0518/0618 VRB05KT P6SM BKN250
     FM060000 15005KT P6SM BKN100
     FM061500 20006KT P6SM BKN080=



000
FTUS43 KLSX 051720
TAFCOU
TAF
KCOU 051720Z 0518/0618 VRB04KT P6SM BKN250
     FM060000 14005KT P6SM BKN100
     FM061500 23006KT P6SM BKN080=



000
FTUS43 KLSX 051720
TAFSTL
TAF
KSTL 051720Z 0518/0624 VRB05KT P6SM BKN250
     FM060100 12004KT P6SM BKN100
     FM061500 24007KT P6SM BKN080=



000
FTUS43 KLSX 051720
TAFUIN
TAF
KUIN 051720Z 0518/0618 VRB05KT P6SM BKN250
     FM060000 15005KT P6SM BKN100
     FM061500 20006KT P6SM BKN080=



000
FTUS43 KLSX 051720
TAFSUS
TAF
KSUS 051720Z 0518/0618 30004KT P6SM BKN250
     FM060000 VRB03KT P6SM BKN100
     FM061500 24007KT P6SM BKN080=



000
FTUS43 KLSX 051720
TAFSTL
TAF
KSTL 051720Z 0518/0624 VRB05KT P6SM BKN250
     FM060100 12004KT P6SM BKN100
     FM061500 24007KT P6SM BKN080=



000
FTUS43 KLSX 051720
TAFSUS
TAF
KSUS 051720Z 0518/0618 30004KT P6SM BKN250
     FM060000 VRB03KT P6SM BKN100
     FM061500 24007KT P6SM BKN080=



000
FTUS43 KLSX 051129
TAFUIN
TAF
KUIN 051129Z 0512/0612 28005KT P6SM BKN250
     FM060000 14005KT P6SM BKN100=



000
FTUS43 KLSX 051129
TAFSTL
TAF
KSTL 051129Z 0512/0618 30006KT P6SM BKN250
     FM060100 12004KT P6SM BKN100
     FM061500 24007KT P6SM BKN080=



000
FTUS43 KLSX 051129
TAFCOU
TAF
KCOU 051129Z 0512/0612 VRB04KT P6SM BKN250
     FM060000 14005KT P6SM BKN100=



000
FTUS43 KLSX 051129
TAFSUS
TAF
KSUS 051129Z 0512/0612 30004KT P6SM BKN250
     FM060000 VRB03KT P6SM BKN100=



000
FTUS43 KLSX 051129
TAFSUS
TAF
KSUS 051129Z 0512/0612 30004KT P6SM BKN250
     FM060000 VRB03KT P6SM BKN100=



000
FTUS43 KLSX 051129
TAFCOU
TAF
KCOU 051129Z 0512/0612 VRB04KT P6SM BKN250
     FM060000 14005KT P6SM BKN100=



000
FTUS43 KLSX 051129
TAFSTL
TAF
KSTL 051129Z 0512/0618 30006KT P6SM BKN250
     FM060100 12004KT P6SM BKN100
     FM061500 24007KT P6SM BKN080=



000
FTUS43 KLSX 051129
TAFUIN
TAF
KUIN 051129Z 0512/0612 28005KT P6SM BKN250
     FM060000 14005KT P6SM BKN100=



000
FTUS43 KLSX 050851 AAA
TAFSTL
TAF AMD
KSTL 050851Z 0509/0612 26005KT P6SM SKC
     FM060100 14006KT P6SM BKN100=



000
FTUS43 KLSX 050520
TAFUIN
TAF
KUIN 050520Z 0506/0606 30006KT P6SM SCT250
      TEMPO 0508/0509 BKN018
     FM051600 VRB03KT P6SM BKN120
     FM060000 14005KT P6SM BKN060=



000
FTUS43 KLSX 050520
TAFSUS
TAF
KSUS 050520Z 0506/0606 VRB04KT P6SM SCT250
     FM060100 14006KT P6SM BKN100=



000
FTUS43 KLSX 050520
TAFCOU
TAF
KCOU 050520Z 0506/0606 VRB04KT P6SM SCT250
     FM060000 14006KT P6SM BKN080=



000
FTUS43 KLSX 050520
TAFSTL
TAF
KSTL 050520Z 0506/0612 26007KT P6SM SCT250
     FM060100 14006KT P6SM BKN100=



000
FTUS43 KLSX 050520
TAFSTL
TAF
KSTL 050520Z 0506/0612 26007KT P6SM SCT250
     FM060100 14006KT P6SM BKN100=



000
FTUS43 KLSX 050520
TAFUIN
TAF
KUIN 050520Z 0506/0606 30006KT P6SM SCT250
      TEMPO 0508/0509 BKN018
     FM051600 VRB03KT P6SM BKN120
     FM060000 14005KT P6SM BKN060=



000
FTUS43 KLSX 050520
TAFCOU
TAF
KCOU 050520Z 0506/0606 VRB04KT P6SM SCT250
     FM060000 14006KT P6SM BKN080=



000
FTUS43 KLSX 050520
TAFSUS
TAF
KSUS 050520Z 0506/0606 VRB04KT P6SM SCT250
     FM060100 14006KT P6SM BKN100=



000
FTUS43 KLSX 050303 AAA
TAFUIN
TAF AMD
KUIN 050303Z 0503/0524 19005KT P6SM SCT120
     FM050600 30006KT P6SM SCT250
     FM051600 VRB03KT P6SM BKN120=



000
FTUS43 KLSX 050303 AAA
TAFUIN
TAF AMD
KUIN 050303Z 0503/0524 19005KT P6SM SCT120
     FM050600 30006KT P6SM SCT250
     FM051600 VRB03KT P6SM BKN120=



000
FTUS43 KLSX 050301 AAA
TAFSTL
TAF AMD
KSTL 050301Z 0503/0606 26007KT P6SM SCT250
     FM060300 14006KT P6SM BKN100=



000
FTUS43 KLSX 050301 AAA
TAFSTL
TAF AMD
KSTL 050301Z 0503/0606 26007KT P6SM SCT250
     FM060300 14006KT P6SM BKN100=



000
FTUS43 KLSX 042327
TAFSTL
TAF
KSTL 042327Z 0500/0606 26007KT P6SM SCT250
     FM060300 14006KT P6SM BKN100=



000
FTUS43 KLSX 042327
TAFUIN
TAF
KUIN 042327Z 0500/0524 22009KT P6SM SCT120
     FM050600 29006KT P6SM SCT250
     FM051600 VRB03KT P6SM BKN120=



000
FTUS43 KLSX 042327
TAFSUS
TAF
KSUS 042327Z 0500/0524 VRB04KT P6SM SKC=



000
FTUS43 KLSX 042327
TAFCOU
TAF
KCOU 042327Z 0500/0524 25009KT P6SM SKC
     FM050400 VRB04KT P6SM SCT250=



000
FTUS43 KLSX 042156 AAA
TAFSTL
TAF AMD
KSTL 042156Z 0422/0524 26007KT P6SM SCT150=



000
FTUS43 KLSX 042156 AAA
TAFSTL
TAF AMD
KSTL 042156Z 0422/0524 26007KT P6SM SCT150=



000
FTUS43 KLSX 042123 AAA
TAFCOU
TAF AMD
KCOU 042123Z 0421/0518 25010G18KT P6SM SKC
     FM050000 25009KT P6SM SKC
     FM050800 30004KT P6SM FEW250
     FM051300 00000KT P6SM SCT150=



000
FTUS43 KLSX 042123 AAA
TAFCOU
TAF AMD
KCOU 042123Z 0421/0518 25010G18KT P6SM SKC
     FM050000 25009KT P6SM SKC
     FM050800 30004KT P6SM FEW250
     FM051300 00000KT P6SM SCT150=



    US Dept of Commerce
    National Oceanic and Atmospheric Administration
    National Weather Service
    1325 East West Highway
    Silver Spring, MD 20910
    Page Author: NWS Internet Services Team
Disclaimer
Information Quality
Credits
Glossary
Privacy Policy
Freedom of Information Act (FOIA)
About Us
Career Opportunities